Time;durP1;ratioP1;P1;durP2;ratioP2;P2;SDS_P1;SDS_P2;PMS_P1;PMS_P2;Temp;Humidity;BMP_temperature;BMP_pressure;BME280_temperature;BME280_humidity;BME280_pressure;Samples;Min_cycle;Max_cycle;Signal;HPM_P1;HPM_P2
2021/09/02 00:01:47;;;;;;;3.00;2.65;;;23.50;42.60;;;;;;4990531;28;20199;-49
2021/09/02 00:04:13;;;;;;;3.40;2.97;;;23.50;42.60;;;;;;4978024;28;20215;-43
2021/09/02 00:06:40;;;;;;;2.70;2.50;;;23.50;42.60;;;;;;4984431;28;20207;-45
2021/09/02 00:09:06;;;;;;;3.08;2.83;;;23.50;42.70;;;;;;4991411;28;20205;-46
2021/09/02 00:11:33;;;;;;;3.45;2.75;;;23.50;42.70;;;;;;4987464;28;20218;-53
2021/09/02 00:13:59;;;;;;;2.50;2.30;;;23.50;42.70;;;;;;4990118;28;20235;-44
2021/09/02 00:16:26;;;;;;;2.65;2.45;;;23.50;42.70;;;;;;4990331;28;20239;-53
2021/09/02 00:18:52;;;;;;;3.25;2.60;;;23.50;42.70;;;;;;4984342;28;20204;-46
2021/09/02 00:21:19;;;;;;;2.63;2.42;;;23.50;42.70;;;;;;4987196;28;20204;-43
2021/09/02 00:23:46;;;;;;;2.45;2.25;;;23.50;42.70;;;;;;4988484;28;20208;-50
2021/09/02 00:26:13;;;;;;;2.47;2.28;;;23.50;42.70;;;;;;4990939;28;20248;-45
2021/09/02 00:28:39;;;;;;;2.60;2.40;;;23.50;42.70;;;;;;4989780;28;20290;-43
2021/09/02 00:31:06;;;;;;;2.50;2.30;;;23.50;42.70;;;;;;4986192;28;20274;-53
2021/09/02 00:33:32;;;;;;;3.13;2.83;;;23.50;42.70;;;;;;4979744;28;20231;-51
2021/09/02 00:35:59;;;;;;;2.50;2.30;;;23.50;42.70;;;;;;4984105;28;20238;-45
2021/09/02 00:38:25;;;;;;;2.65;2.45;;;23.50;42.80;;;;;;4987646;28;20209;-51
2021/09/02 00:40:51;;;;;;;2.50;2.30;;;23.50;42.80;;;;;;4990530;28;20204;-45
2021/09/02 00:43:18;;;;;;;2.70;2.50;;;23.50;42.80;;;;;;4990667;28;20294;-45
2021/09/02 00:45:44;;;;;;;2.47;2.28;;;23.50;42.80;;;;;;4991297;28;20219;-43
2021/09/02 00:48:11;;;;;;;2.47;2.28;;;23.50;42.80;;;;;;4989573;28;20210;-48
2021/09/02 00:50:37;;;;;;;2.33;2.13;;;23.50;42.70;;;;;;4990471;28;20204;-47
2021/09/02 00:53:04;;;;;;;2.80;2.60;;;23.40;42.70;;;;;;4990013;28;20219;-53
2021/09/02 00:55:30;;;;;;;2.53;2.33;;;23.50;42.80;;;;;;4976219;28;20239;-47
2021/09/02 00:57:57;;;;;;;2.70;2.10;;;23.40;42.70;;;;;;4976889;28;20287;-42
2021/09/02 01:00:23;;;;;;;3.08;2.78;;;23.50;42.80;;;;;;4991042;28;20203;-42
2021/09/02 01:02:50;;;;;;;4.05;2.60;;;23.50;42.90;;;;;;4987319;28;20232;-43
2021/09/02 01:05:16;;;;;;;2.47;2.28;;;23.40;42.80;;;;;;4993499;28;20223;-44
2021/09/02 01:07:43;;;;;;;3.38;2.22;;;23.40;42.80;;;;;;4994746;28;20231;-45
2021/09/02 01:10:09;;;;;;;3.00;2.10;;;23.50;42.90;;;;;;4993525;28;20211;-44
2021/09/02 01:12:36;;;;;;;3.00;2.45;;;23.40;42.80;;;;;;4990933;28;20207;-50
2021/09/02 01:15:03;;;;;;;2.75;2.55;;;23.50;42.90;;;;;;4988117;28;20278;-43
2021/09/02 01:17:29;;;;;;;3.00;2.33;;;23.50;42.90;;;;;;4992674;28;20196;-44
2021/09/02 01:19:56;;;;;;;2.67;2.47;;;23.50;42.90;;;;;;4993487;28;20207;-46
2021/09/02 01:22:22;;;;;;;2.67;2.28;;;23.50;42.90;;;;;;4994598;28;20195;-45
2021/09/02 01:24:49;;;;;;;2.47;2.00;;;23.50;42.90;;;;;;4991066;28;20238;-42
2021/09/02 01:27:15;;;;;;;3.10;2.42;;;23.50;42.90;;;;;;4982680;28;20205;-46
2021/09/02 01:29:42;;;;;;;2.22;2.03;;;23.50;43.00;;;;;;4979335;28;20196;-45
2021/09/02 01:32:08;;;;;;;3.63;2.47;;;23.40;42.90;;;;;;4992756;28;20200;-43
2021/09/02 01:34:34;;;;;;;2.83;2.53;;;23.40;42.90;;;;;;4986463;28;20231;-45
2021/09/02 01:37:01;;;;;;;2.58;2.38;;;23.50;43.00;;;;;;4993448;28;20210;-43
2021/09/02 01:39:27;;;;;;;2.95;2.65;;;23.50;43.00;;;;;;4984041;28;20208;-47
2021/09/02 01:41:54;;;;;;;2.30;2.10;;;23.40;43.00;;;;;;4994238;28;20208;-45
2021/09/02 01:44:20;;;;;;;2.47;2.20;;;23.40;43.00;;;;;;4993541;28;20302;-44
2021/09/02 01:46:47;;;;;;;2.42;2.22;;;23.40;43.00;;;;;;4976329;28;20251;-43
2021/09/02 01:49:13;;;;;;;2.70;2.30;;;23.40;43.10;;;;;;4987870;28;20200;-47
2021/09/02 01:51:40;;;;;;;2.78;2.58;;;23.40;43.10;;;;;;4994597;28;20216;-43
2021/09/02 01:54:06;;;;;;;3.15;2.60;;;23.50;43.20;;;;;;4990985;28;20239;-43
2021/09/02 01:56:32;;;;;;;2.75;2.40;;;23.40;43.10;;;;;;4986554;28;20210;-45
2021/09/02 01:58:59;;;;;;;2.40;2.20;;;23.40;43.10;;;;;;4991861;28;20208;-46
2021/09/02 02:01:25;;;;;;;2.60;2.38;;;23.40;43.10;;;;;;4991969;28;20196;-45
2021/09/02 02:03:52;;;;;;;4.00;2.70;;;23.40;43.20;;;;;;4992301;28;20294;-44
2021/09/02 02:06:19;;;;;;;2.38;2.17;;;23.40;43.20;;;;;;4991729;28;20287;-48
2021/09/02 02:08:45;;;;;;;2.97;2.40;;;23.40;43.20;;;;;;4993490;28;20203;-46
2021/09/02 02:11:11;;;;;;;2.88;2.25;;;23.40;43.20;;;;;;4991077;28;20208;-46
2021/09/02 02:13:38;;;;;;;3.78;2.40;;;23.50;43.30;;;;;;4993720;28;20234;-44
2021/09/02 02:16:04;;;;;;;3.08;2.70;;;23.50;43.30;;;;;;4991472;28;20200;-44
2021/09/02 02:18:31;;;;;;;2.60;2.30;;;23.50;43.40;;;;;;4990478;28;20204;-43
2021/09/02 02:20:57;;;;;;;3.17;2.10;;;23.40;43.30;;;;;;4989675;28;20214;-43
2021/09/02 02:23:24;;;;;;;2.38;2.05;;;23.40;43.30;;;;;;4993586;28;20216;-42
2021/09/02 02:25:50;;;;;;;2.75;2.20;;;23.40;43.40;;;;;;4987409;28;20213;-43
2021/09/02 02:28:16;;;;;;;2.20;2.03;;;23.40;43.40;;;;;;4986862;28;20312;-41
2021/09/02 02:30:43;;;;;;;2.42;2.00;;;23.40;43.40;;;;;;4990703;28;20222;-43
2021/09/02 02:33:09;;;;;;;3.05;2.30;;;23.40;43.40;;;;;;4993922;28;20204;-44
2021/09/02 02:35:36;;;;;;;2.30;2.10;;;23.40;43.40;;;;;;4982167;28;20228;-43
2021/09/02 02:38:02;;;;;;;2.45;2.22;;;23.40;43.40;;;;;;4994551;28;20200;-45
2021/09/02 02:40:29;;;;;;;3.35;2.30;;;23.40;43.40;;;;;;5002019;28;20200;-44
2021/09/02 02:42:56;;;;;;;2.42;2.20;;;23.40;43.40;;;;;;4983680;28;20226;-43
2021/09/02 02:45:22;;;;;;;2.55;2.17;;;23.40;43.60;;;;;;4988803;28;20228;-47
2021/09/02 02:47:49;;;;;;;2.90;2.45;;;23.40;43.40;;;;;;4991785;28;20207;-49
2021/09/02 02:50:15;;;;;;;2.95;2.35;;;23.40;43.40;;;;;;4990960;28;20210;-48
2021/09/02 02:52:42;;;;;;;3.42;2.85;;;23.40;43.50;;;;;;4991575;28;20202;-44
2021/09/02 02:55:08;;;;;;;2.50;2.30;;;23.40;43.50;;;;;;4991554;28;20246;-47
2021/09/02 02:57:35;;;;;;;2.25;1.98;;;23.40;43.50;;;;;;4992490;28;20200;-51
2021/09/02 03:00:01;;;;;;;2.67;2.20;;;23.40;43.50;;;;;;4991852;28;20215;-43
2021/09/02 03:02:28;;;;;;;2.60;2.40;;;23.40;43.50;;;;;;4992828;28;20287;-51
2021/09/02 03:04:54;;;;;;;2.58;2.28;;;23.40;43.60;;;;;;4992182;28;20275;-47
2021/09/02 03:07:20;;;;;;;2.40;2.20;;;23.40;43.60;;;;;;4991832;28;20210;-53
2021/09/02 03:09:47;;;;;;;2.60;2.30;;;23.40;43.60;;;;;;4991614;28;20661;-47
2021/09/02 03:12:13;;;;;;;2.50;2.33;;;23.40;43.60;;;;;;4992631;28;20667;-42
2021/09/02 03:14:40;;;;;;;3.38;2.33;;;23.40;43.60;;;;;;4991551;28;20683;-51
2021/09/02 03:17:06;;;;;;;2.75;2.17;;;23.40;43.60;;;;;;4992850;28;20571;-43
2021/09/02 03:19:33;;;;;;;2.70;2.00;;;23.40;43.60;;;;;;4983537;28;20667;-49
2021/09/02 03:21:59;;;;;;;3.70;2.30;;;23.40;43.60;;;;;;4991737;28;20576;-42
2021/09/02 03:24:25;;;;;;;2.33;2.13;;;23.40;43.70;;;;;;4991814;28;20733;-47
2021/09/02 03:26:52;;;;;;;2.65;2.40;;;23.40;43.70;;;;;;4982732;28;20318;-48
2021/09/02 03:29:18;;;;;;;2.92;2.50;;;23.40;43.70;;;;;;4991706;28;20569;-45
2021/09/02 03:31:45;;;;;;;2.58;2.38;;;23.40;43.80;;;;;;4988273;28;20195;-46
2021/09/02 03:34:11;;;;;;;2.70;2.30;;;23.40;43.70;;;;;;4971976;28;20242;-43
2021/09/02 03:36:38;;;;;;;2.20;2.00;;;23.40;43.80;;;;;;4984513;28;20286;-44
2021/09/02 03:39:04;;;;;;;2.40;2.20;;;23.40;43.80;;;;;;4990884;28;20286;-43
2021/09/02 03:41:31;;;;;;;3.08;2.47;;;23.40;43.90;;;;;;4974281;28;20204;-48
2021/09/02 03:43:57;;;;;;;2.58;2.38;;;23.40;44.10;;;;;;4988970;28;20334;-43
2021/09/02 03:46:24;;;;;;;3.42;2.08;;;23.30;44.30;;;;;;4990901;28;20199;-43
2021/09/02 03:48:50;;;;;;;2.28;2.08;;;23.40;44.50;;;;;;4990672;28;20206;-47
2021/09/02 03:51:17;;;;;;;2.20;2.00;;;23.40;44.80;;;;;;4980781;28;20575;-52
2021/09/02 03:53:43;;;;;;;2.50;2.30;;;23.40;45.70;;;;;;4979406;28;20743;-50
2021/09/02 03:56:10;;;;;;;3.13;2.17;;;23.40;49.80;;;;;;4991521;28;20570;-44
2021/09/02 03:58:36;;;;;;;2.30;2.10;;;23.40;44.20;;;;;;4991182;28;20525;-44
2021/09/02 04:01:03;;;;;;;2.58;2.30;;;23.40;43.80;;;;;;4991707;28;20606;-46
2021/09/02 04:03:29;;;;;;;3.17;2.20;;;23.40;43.70;;;;;;4991907;28;20255;-48
2021/09/02 04:05:56;;;;;;;1.83;1.70;;;23.40;43.80;;;;;;4992833;28;20294;-47
2021/09/02 04:08:23;;;;;;;2.40;2.20;;;23.40;43.70;;;;;;4991863;28;20203;-46
2021/09/02 04:10:49;;;;;;;2.25;2.05;;;23.40;43.80;;;;;;4991078;28;20215;-48
2021/09/02 04:13:15;;;;;;;3.00;2.15;;;23.40;43.80;;;;;;4991286;28;20614;-48
2021/09/02 04:15:42;;;;;;;2.35;2.08;;;23.40;43.80;;;;;;4991783;28;20920;-49
2021/09/02 04:18:08;;;;;;;2.25;2.05;;;23.40;43.80;;;;;;4990781;28;20206;-51
2021/09/02 04:20:35;;;;;;;2.30;2.10;;;23.40;43.80;;;;;;4990683;28;20202;-43
2021/09/02 04:23:01;;;;;;;3.10;2.13;;;23.40;43.80;;;;;;4989614;28;20210;-47
2021/09/02 04:25:28;;;;;;;2.58;2.38;;;23.40;44.50;;;;;;4990471;28;20302;-42
2021/09/02 04:27:54;;;;;;;2.35;2.00;;;23.40;43.90;;;;;;4991549;28;20214;-45
2021/09/02 04:30:21;;;;;;;2.10;1.95;;;23.40;43.80;;;;;;4986550;28;20203;-46
2021/09/02 04:32:47;;;;;;;2.13;1.92;;;23.40;43.80;;;;;;4990134;28;20200;-42
2021/09/02 04:35:13;;;;;;;2.65;2.45;;;23.40;43.80;;;;;;4989790;28;20331;-47
2021/09/02 04:37:40;;;;;;;2.35;2.03;;;23.40;43.80;;;;;;4991475;28;20196;-44
2021/09/02 04:40:06;;;;;;;2.33;2.08;;;23.40;43.80;;;;;;4992553;28;20206;-49
2021/09/02 04:42:33;;;;;;;2.33;2.13;;;23.40;43.80;;;;;;4988236;28;20288;-45
2021/09/02 04:45:00;;;;;;;2.42;2.22;;;23.40;43.80;;;;;;4995462;28;20236;-47
2021/09/02 04:47:26;;;;;;;2.30;2.03;;;23.40;43.80;;;;;;4994957;28;20207;-48
2021/09/02 04:49:53;;;;;;;2.45;2.25;;;23.40;43.70;;;;;;4993920;28;20216;-43
2021/09/02 04:52:19;;;;;;;2.30;2.10;;;23.40;43.80;;;;;;4985761;28;20212;-46
2021/09/02 04:54:46;;;;;;;2.10;1.90;;;23.40;43.90;;;;;;4995239;28;20245;-44
2021/09/02 04:57:12;;;;;;;2.60;2.28;;;23.40;43.90;;;;;;4994801;28;20203;-44
2021/09/02 04:59:39;;;;;;;2.35;1.95;;;23.40;43.90;;;;;;4993671;28;20208;-45
2021/09/02 05:02:05;;;;;;;2.53;2.30;;;23.40;44.00;;;;;;4988858;28;20199;-48
2021/09/02 05:04:31;;;;;;;2.92;2.22;;;23.40;44.00;;;;;;4994103;28;20254;-47
2021/09/02 05:06:58;;;;;;;2.33;2.13;;;23.40;44.00;;;;;;4995043;28;20206;-43
2021/09/02 05:09:24;;;;;;;2.40;2.20;;;23.40;44.00;;;;;;4993921;28;20207;-42
2021/09/02 05:11:51;;;;;;;4.28;2.05;;;23.40;44.00;;;;;;4990399;28;20212;-45
2021/09/02 05:14:17;;;;;;;2.03;1.90;;;23.40;44.10;;;;;;4987262;28;20258;-42
2021/09/02 05:16:44;;;;;;;2.40;2.15;;;23.40;44.10;;;;;;4988498;28;20572;-42
2021/09/02 05:19:10;;;;;;;2.15;1.95;;;23.40;44.10;;;;;;4978110;28;20626;-45
2021/09/02 05:21:37;;;;;;;5.00;2.85;;;23.40;44.10;;;;;;4989040;28;20518;-46
2021/09/02 05:24:03;;;;;;;2.70;2.13;;;23.40;44.20;;;;;;4992485;28;20227;-43
2021/09/02 05:26:30;;;;;;;3.00;2.28;;;23.40;44.50;;;;;;4993540;28;20204;-51
2021/09/02 05:28:56;;;;;;;7.63;2.60;;;23.40;44.70;;;;;;4991959;28;20203;-41
2021/09/02 05:31:22;;;;;;;4.07;2.95;;;23.40;46.20;;;;;;4990904;28;20208;-45
2021/09/02 05:33:49;;;;;;;5.18;2.72;;;23.50;45.50;;;;;;4993282;28;20246;-51
2021/09/02 05:36:15;;;;;;;7.20;3.22;;;23.50;46.00;;;;;;4991136;28;20237;-42
2021/09/02 05:38:42;;;;;;;6.47;3.42;;;23.50;47.50;;;;;;4994944;28;20716;-48
2021/09/02 05:41:08;;;;;;;7.97;4.18;;;23.60;47.30;;;;;;4990704;28;20196;-47
2021/09/02 05:43:35;;;;;;;8.05;3.28;;;23.60;47.40;;;;;;4987950;28;20224;-47
2021/09/02 05:46:01;;;;;;;6.97;3.25;;;23.50;48.00;;;;;;4993023;28;20214;-45
2021/09/02 05:48:28;;;;;;;8.70;4.28;;;23.40;47.50;;;;;;4991691;28;20759;-47
2021/09/02 05:50:54;;;;;;;10.90;4.97;;;23.40;47.80;;;;;;4989335;28;20206;-44
2021/09/02 05:53:21;;;;;;;10.05;4.22;;;23.30;48.50;;;;;;4995083;28;20231;-46
2021/09/02 05:55:48;;;;;;;10.75;4.70;;;23.30;48.60;;;;;;4991430;28;20226;-44
2021/09/02 05:58:14;;;;;;;12.38;5.25;;;23.40;48.80;;;;;;4984678;28;20196;-46
2021/09/02 06:00:41;;;;;;;8.68;4.80;;;23.20;47.40;;;;;;4991757;28;20199;-44
2021/09/02 06:03:07;;;;;;;8.35;5.43;;;22.70;45.20;;;;;;4993196;28;20235;-45
2021/09/02 06:05:34;;;;;;;6.35;4.85;;;;;;;;;;4992297;28;20204;-49
2021/09/02 06:08:01;;;;;;;5.35;4.30;;;22.20;42.10;;;;;;4992688;28;20210;-49
2021/09/02 06:10:27;;;;;;;6.80;5.03;;;22.00;41.20;;;;;;4991747;28;20298;-48
2021/09/02 06:12:56;;;;;;;5.13;4.60;;;21.80;41.00;;;;;;4993080;28;20314;-42
2021/09/02 06:15:23;;;;;;;5.03;4.53;;;21.70;40.90;;;;;;4991500;28;20629;-44
2021/09/02 06:17:49;;;;;;;5.63;4.82;;;21.70;41.40;;;;;;4992202;28;20286;-41
2021/09/02 06:20:16;;;;;;;5.10;4.57;;;21.70;40.90;;;;;;4992385;28;20229;-43
2021/09/02 06:22:42;;;;;;;4.10;3.70;;;21.80;41.00;;;;;;4990133;28;20228;-41
2021/09/02 06:25:08;;;;;;;4.70;4.25;;;22.00;41.40;;;;;;4990017;28;20226;-48
2021/09/02 06:27:35;;;;;;;5.30;4.00;;;22.20;41.70;;;;;;4996611;28;20204;-47
2021/09/02 06:30:01;;;;;;;6.57;4.28;;;22.30;41.70;;;;;;4990544;28;20204;-43
2021/09/02 06:32:28;;;;;;;5.05;3.92;;;22.40;41.50;;;;;;4992352;28;20196;-42
2021/09/02 06:34:54;;;;;;;8.15;4.28;;;22.50;41.60;;;;;;4991073;28;20729;-46
2021/09/02 06:37:21;;;;;;;4.60;3.97;;;22.50;41.60;;;;;;4992298;28;20670;-47
2021/09/02 06:39:47;;;;;;;4.07;3.67;;;22.60;41.30;;;;;;4988640;28;20574;-44
2021/09/02 06:42:13;;;;;;;4.53;3.70;;;22.60;41.10;;;;;;4991221;28;20583;-44
2021/09/02 06:44:40;;;;;;;4.32;3.92;;;22.70;41.80;;;;;;4989364;28;20508;-44
2021/09/02 06:47:06;;;;;;;5.95;4.18;;;22.70;41.80;;;;;;4991629;28;20562;-41
2021/09/02 06:49:33;;;;;;;4.55;3.83;;;22.70;41.80;;;;;;4999918;28;20539;-46
2021/09/02 06:52:00;;;;;;;8.18;4.47;;;22.80;41.50;;;;;;5002146;28;20239;-45
2021/09/02 06:54:26;;;;;;;5.72;4.30;;;22.80;42.20;;;;;;4991733;28;20306;-42
2021/09/02 06:56:53;;;;;;;5.95;4.20;;;22.90;42.00;;;;;;4992205;28;20246;-49
2021/09/02 06:59:20;;;;;;;4.80;4.30;;;22.90;41.80;;;;;;4987689;28;20208;-44
2021/09/02 07:01:46;;;;;;;5.95;4.15;;;22.90;41.90;;;;;;4992974;28;20318;-44
2021/09/02 07:04:13;;;;;;;5.10;4.03;;;22.90;40.80;;;;;;4988054;28;20223;-46
2021/09/02 07:06:39;;;;;;;5.97;4.20;;;22.90;40.40;;;;;;4990211;28;20204;-48
2021/09/02 07:09:05;;;;;;;6.20;4.43;;;22.90;40.90;;;;;;4988753;28;20202;-47
2021/09/02 07:11:32;;;;;;;6.20;3.75;;;22.90;40.80;;;;;;4990167;28;20206;-46
2021/09/02 07:13:58;;;;;;;5.57;3.92;;;23.00;41.30;;;;;;4988532;28;20220;-49
2021/09/02 07:16:25;;;;;;;3.60;3.13;;;23.00;41.60;;;;;;4990183;28;20247;-42
2021/09/02 07:18:51;;;;;;;5.32;3.55;;;23.00;41.00;;;;;;4989586;28;20756;-48
2021/09/02 07:21:18;;;;;;;3.55;3.25;;;22.90;40.00;;;;;;4990968;28;20330;-45
2021/09/02 07:23:44;;;;;;;4.40;3.50;;;23.00;40.30;;;;;;4990079;28;20585;-45
2021/09/02 07:26:11;;;;;;;4.50;3.42;;;22.90;40.00;;;;;;4991376;28;20548;-48
2021/09/02 07:28:37;;;;;;;4.10;3.63;;;22.90;40.20;;;;;;4990185;28;20594;-48
2021/09/02 07:31:03;;;;;;;3.67;3.28;;;22.90;39.90;;;;;;4989956;28;20590;-47
2021/09/02 07:33:30;;;;;;;4.50;3.42;;;22.90;40.10;;;;;;4989484;28;20633;-44
2021/09/02 07:35:57;;;;;;;5.82;3.53;;;22.90;40.00;;;;;;4991984;28;20812;-45
2021/09/02 07:38:23;;;;;;;3.95;3.22;;;22.90;40.20;;;;;;4990486;28;20236;-46
2021/09/02 07:40:50;;;;;;;3.90;3.50;;;22.90;40.30;;;;;;4986406;28;20235;-50
2021/09/02 07:43:16;;;;;;;4.35;2.90;;;23.00;40.20;;;;;;4991650;28;20216;-44
2021/09/02 07:45:43;;;;;;;4.25;3.40;;;22.90;39.60;;;;;;4991176;28;20203;-47
2021/09/02 07:48:09;;;;;;;3.85;3.42;;;22.90;39.80;;;;;;4991638;28;20234;-48
2021/09/02 07:50:36;;;;;;;4.85;2.78;;;22.90;39.80;;;;;;4981711;28;20279;-48
2021/09/02 07:53:02;;;;;;;3.53;3.22;;;22.90;39.80;;;;;;4976483;28;20721;-50
2021/09/02 07:55:28;;;;;;;4.10;3.70;;;22.90;40.20;;;;;;4984458;28;20336;-49
2021/09/02 07:57:56;;;;;;;3.42;3.13;;;23.00;40.50;;;;;;4987046;28;20214;-50
2021/09/02 08:00:22;;;;;;;5.88;3.92;;;23.00;41.30;;;;;;4982333;28;20204;-49
2021/09/02 08:02:49;;;;;;;4.30;3.50;;;23.10;41.20;;;;;;4989745;28;20352;-50
2021/09/02 08:05:15;;;;;;;13.07;6.45;;;23.10;41.30;;;;;;4986372;28;20208;-48
2021/09/02 08:07:42;;;;;;;23.00;9.55;;;23.10;41.30;;;;;;4988235;28;20682;-49
2021/09/02 08:10:09;;;;;;;23.35;9.75;;;23.20;42.20;;;;;;4989425;28;20196;-47
2021/09/02 08:12:35;;;;;;;25.30;11.30;;;23.20;42.20;;;;;;4989241;28;20216;-50
2021/09/02 08:15:01;;;;;;;28.27;10.70;;;23.30;42.50;;;;;;4987143;28;20200;-51
2021/09/02 08:17:28;;;;;;;24.98;10.43;;;23.30;42.40;;;;;;4984485;28;20697;-49
2021/09/02 08:19:54;;;;;;;23.15;10.65;;;23.30;42.60;;;;;;4987630;28;20678;-48
2021/09/02 08:22:21;;;;;;;20.20;9.00;;;23.30;42.60;;;;;;4991176;28;20592;-47
2021/09/02 08:24:47;;;;;;;22.27;9.38;;;23.30;42.50;;;;;;4975529;28;20549;-46
2021/09/02 08:27:14;;;;;;;13.50;8.18;;;23.30;42.30;;;;;;4991782;28;20581;-49
2021/09/02 08:29:40;;;;;;;16.60;8.13;;;23.30;42.30;;;;;;4991424;28;20558;-46
2021/09/02 08:32:06;;;;;;;16.15;7.40;;;23.30;42.30;;;;;;4991792;28;20599;-46
2021/09/02 08:34:33;;;;;;;17.50;8.32;;;23.30;42.30;;;;;;4991381;28;20570;-46
2021/09/02 08:36:59;;;;;;;14.52;7.45;;;23.30;42.30;;;;;;4991429;28;20630;-47
2021/09/02 08:39:26;;;;;;;13.93;7.22;;;23.30;42.60;;;;;;4990847;28;20571;-48
2021/09/02 08:41:53;;;;;;;11.60;6.55;;;23.40;42.50;;;;;;4998242;28;20555;-51
2021/09/02 08:44:19;;;;;;;15.20;7.05;;;23.40;42.70;;;;;;4983556;28;20208;-51
2021/09/02 08:46:45;;;;;;;11.00;6.68;;;23.30;42.90;;;;;;4972250;28;20204;-49
2021/09/02 08:49:12;;;;;;;13.88;7.13;;;23.40;43.20;;;;;;4971650;28;20294;-49
2021/09/02 08:51:40;;;;;;;11.85;6.78;;;23.40;43.10;;;;;;4972231;28;20204;-52
2021/09/02 08:54:06;;;;;;;12.20;6.45;;;23.40;43.40;;;;;;4980364;28;20203;-49
2021/09/02 08:56:33;;;;;;;14.50;7.07;;;23.40;43.10;;;;;;4987236;28;20231;-49
2021/09/02 08:58:59;;;;;;;14.15;7.30;;;23.40;43.30;;;;;;4980020;28;20208;-51
2021/09/02 09:01:25;;;;;;;12.02;6.43;;;23.40;43.60;;;;;;4989951;28;20214;-50
2021/09/02 09:03:52;;;;;;;9.82;6.03;;;23.40;43.60;;;;;;4990789;28;20200;-49
2021/09/02 09:06:19;;;;;;;12.05;6.53;;;23.40;43.40;;;;;;4978698;28;20205;-51
2021/09/02 09:08:46;;;;;;;14.95;7.65;;;23.40;44.10;;;;;;4987018;28;20508;-46
2021/09/02 09:11:12;;;;;;;13.00;7.43;;;23.50;44.60;;;;;;4987126;28;20675;-50
2021/09/02 09:13:39;;;;;;;11.65;6.82;;;23.50;44.60;;;;;;4999078;28;20204;-51
2021/09/02 09:16:05;;;;;;;14.32;7.25;;;23.50;44.40;;;;;;4980351;28;20583;-49
2021/09/02 09:18:31;;;;;;;12.10;7.00;;;23.50;45.30;;;;;;4983048;28;20619;-48
2021/09/02 09:20:58;;;;;;;11.93;7.03;;;23.50;45.50;;;;;;4976024;28;20226;-49
2021/09/02 09:23:24;;;;;;;10.13;6.00;;;23.50;44.50;;;;;;4986012;28;20246;-48
2021/09/02 09:25:51;;;;;;;9.85;6.53;;;23.50;44.30;;;;;;4993732;28;20208;-50
2021/09/02 09:28:17;;;;;;;8.80;5.60;;;23.50;44.00;;;;;;4992261;28;20207;-51
2021/09/02 09:30:44;;;;;;;9.55;6.45;;;23.50;44.20;;;;;;4991120;28;20192;-54
2021/09/02 09:33:11;;;;;;;7.65;5.25;;;23.50;44.60;;;;;;4994222;28;20233;-52
2021/09/02 09:35:37;;;;;;;8.10;5.03;;;23.40;43.80;;;;;;4985285;28;20322;-51
2021/09/02 09:38:04;;;;;;;7.03;5.30;;;23.40;43.00;;;;;;4984170;28;20201;-51
2021/09/02 09:40:30;;;;;;;5.93;4.78;;;23.30;42.60;;;;;;4974819;28;20204;-50
2021/09/02 09:42:56;;;;;;;6.30;5.00;;;23.30;42.30;;;;;;4982036;28;20219;-50
2021/09/02 09:45:23;;;;;;;5.85;4.30;;;23.30;42.30;;;;;;4988613;28;20216;-51
2021/09/02 09:47:49;;;;;;;5.65;4.75;;;23.30;42.80;;;;;;4990993;28;20210;-53
2021/09/02 09:50:16;;;;;;;6.32;4.20;;;23.30;42.30;;;;;;4991903;28;20196;-47
2021/09/02 09:52:42;;;;;;;6.25;4.47;;;23.30;42.00;;;;;;4993165;28;20234;-52
2021/09/02 09:55:09;;;;;;;6.50;4.68;;;23.30;42.00;;;;;;4976277;28;20201;-51
2021/09/02 09:57:35;;;;;;;5.55;4.50;;;23.30;42.30;;;;;;4980103;28;20257;-52
2021/09/02 10:00:02;;;;;;;5.43;4.75;;;23.30;41.50;;;;;;4989895;28;20199;-48
2021/09/02 10:02:28;;;;;;;4.90;4.35;;;23.30;42.20;;;;;;4986507;28;20259;-47
2021/09/02 10:04:55;;;;;;;5.38;4.40;;;23.20;40.80;;;;;;4988452;28;20227;-51
2021/09/02 10:07:21;;;;;;;5.50;4.90;;;23.20;40.10;;;;;;4993210;28;20818;-51
2021/09/02 10:09:50;;;;;;;4.75;4.25;;;23.20;40.10;;;;;;4988258;28;20599;-51
2021/09/02 10:12:16;;;;;;;5.13;4.25;;;23.20;40.40;;;;;;4989207;28;20243;-51
2021/09/02 10:14:42;;;;;;;5.50;4.13;;;23.20;40.50;;;;;;4993627;28;20198;-49
2021/09/02 10:17:09;;;;;;;6.40;4.20;;;23.20;41.00;;;;;;4991302;28;20238;-48
2021/09/02 10:19:35;;;;;;;6.70;4.47;;;23.30;41.30;;;;;;4984626;28;20243;-50
2021/09/02 10:22:03;;;;;;;4.57;3.80;;;23.30;40.50;;;;;;4990480;28;20234;-50
2021/09/02 10:24:30;;;;;;;5.00;4.13;;;23.30;40.80;;;;;;4989942;28;20200;-49
2021/09/02 10:26:56;;;;;;;5.13;3.83;;;23.30;41.00;;;;;;4991311;28;20215;-49
2021/09/02 10:29:22;;;;;;;4.95;4.25;;;23.30;41.00;;;;;;4989949;28;20206;-51
2021/09/02 10:31:49;;;;;;;4.10;3.80;;;23.40;41.40;;;;;;4992454;28;20249;-55
2021/09/02 10:34:15;;;;;;;4.10;3.67;;;23.30;41.30;;;;;;4991932;28;20207;-47
2021/09/02 10:36:45;;;;;;;4.75;4.00;;;23.30;40.70;;;;;;4990717;28;20250;-52
2021/09/02 10:39:11;;;;;;;6.78;4.80;;;23.30;40.90;;;;;;4979951;28;20210;-50
2021/09/02 10:41:40;;;;;;;4.45;4.05;;;23.30;40.70;;;;;;4991448;28;20318;-53
2021/09/02 10:44:06;;;;;;;4.32;3.92;;;23.30;40.20;;;;;;4982070;28;20209;-52
2021/09/02 10:46:33;;;;;;;6.30;4.47;;;23.30;40.70;;;;;;4985815;28;20205;-53
2021/09/02 10:48:59;;;;;;;4.93;4.18;;;23.30;40.90;;;;;;4986134;28;20204;-53
2021/09/02 10:51:25;;;;;;;4.35;3.90;;;23.30;40.50;;;;;;4993324;28;20294;-53
2021/09/02 10:53:52;;;;;;;5.88;4.15;;;23.30;40.70;;;;;;4986676;28;20200;-51
2021/09/02 10:56:18;;;;;;;4.00;3.63;;;23.40;41.10;;;;;;4973993;28;20232;-48
2021/09/02 10:58:45;;;;;;;4.35;3.95;;;23.40;41.00;;;;;;4981222;28;20215;-54
2021/09/02 11:01:11;;;;;;;4.82;3.92;;;23.40;41.00;;;;;;4982641;28;20224;-49
2021/09/02 11:03:38;;;;;;;5.00;4.38;;;23.40;41.00;;;;;;4989424;28;20204;-51
2021/09/02 11:06:04;;;;;;;8.23;5.40;;;23.40;40.80;;;;;;4993361;28;20226;-52
2021/09/02 11:08:31;;;;;;;4.95;4.07;;;23.40;40.80;;;;;;4993090;28;20206;-47
2021/09/02 11:10:57;;;;;;;4.28;3.72;;;23.40;40.90;;;;;;4986805;28;20221;-49
2021/09/02 11:13:23;;;;;;;4.30;3.88;;;23.40;40.90;;;;;;4981028;28;20200;-51
2021/09/02 11:15:50;;;;;;;4.85;4.10;;;23.40;40.90;;;;;;4992379;28;20214;-50
2021/09/02 11:18:16;;;;;;;9.30;4.20;;;23.40;40.90;;;;;;4993238;28;20204;-47
2021/09/02 11:20:43;;;;;;;4.22;3.53;;;23.40;40.90;;;;;;4992044;28;20283;-46
2021/09/02 11:23:09;;;;;;;4.97;4.47;;;23.40;41.00;;;;;;4990414;28;20241;-47
2021/09/02 11:25:36;;;;;;;4.57;3.95;;;23.40;40.90;;;;;;4983726;28;20203;-47
2021/09/02 11:28:02;;;;;;;4.05;3.63;;;23.40;41.00;;;;;;4973363;28;20213;-52
2021/09/02 11:30:29;;;;;;;4.13;3.58;;;23.40;40.90;;;;;;4972387;28;20224;-51
2021/09/02 11:32:55;;;;;;;3.92;3.33;;;23.40;40.80;;;;;;4981475;28;20212;-51
2021/09/02 11:35:22;;;;;;;4.35;3.95;;;23.40;41.00;;;;;;4992185;28;20218;-50
2021/09/02 11:37:48;;;;;;;3.83;3.50;;;23.40;40.90;;;;;;4992072;28;20646;-52
2021/09/02 11:40:15;;;;;;;3.78;3.38;;;23.40;40.90;;;;;;4991266;28;20231;-46
2021/09/02 11:42:41;;;;;;;3.80;3.40;;;23.40;40.80;;;;;;4992401;28;20210;-46
2021/09/02 11:45:07;;;;;;;3.88;3.50;;;23.40;41.00;;;;;;4992274;28;20282;-49
2021/09/02 11:47:34;;;;;;;4.38;3.80;;;23.40;40.80;;;;;;4988609;28;20279;-46
2021/09/02 11:50:00;;;;;;;3.70;3.30;;;23.40;40.80;;;;;;4987300;28;20207;-46
2021/09/02 11:52:27;;;;;;;5.03;3.70;;;23.40;40.90;;;;;;4977879;28;20202;-49
2021/09/02 11:54:54;;;;;;;3.58;3.28;;;23.40;40.90;;;;;;4992194;28;20210;-47
2021/09/02 11:57:20;;;;;;;3.95;3.47;;;23.40;40.90;;;;;;4992073;28;20231;-49
2021/09/02 11:59:47;;;;;;;3.75;3.35;;;23.40;41.00;;;;;;4990887;28;20203;-49
2021/09/02 12:02:13;;;;;;;4.15;3.75;;;23.40;41.00;;;;;;4991478;28;20214;-47
2021/09/02 12:04:40;;;;;;;3.47;3.17;;;23.40;41.00;;;;;;4992008;28;20208;-45
2021/09/02 12:07:06;;;;;;;4.07;3.60;;;23.40;41.00;;;;;;4992017;28;20208;-45
2021/09/02 12:09:33;;;;;;;3.58;3.25;;;23.40;41.00;;;;;;4991318;28;20286;-46
2021/09/02 12:11:59;;;;;;;3.90;3.50;;;23.40;41.00;;;;;;4976973;28;20224;-51
2021/09/02 12:14:26;;;;;;;3.70;3.40;;;23.40;40.90;;;;;;4975496;28;20204;-47
2021/09/02 12:16:52;;;;;;;3.58;3.28;;;23.40;41.10;;;;;;4989600;28;20238;-49
2021/09/02 12:19:18;;;;;;;4.20;3.30;;;23.40;41.00;;;;;;4990462;28;20204;-48
2021/09/02 12:21:45;;;;;;;3.78;3.38;;;23.40;41.00;;;;;;4988566;28;20223;-52
2021/09/02 12:24:12;;;;;;;3.60;3.30;;;23.40;40.50;;;;;;4976779;28;20733;-50
2021/09/02 12:26:38;;;;;;;4.05;3.65;;;23.40;40.80;;;;;;4985155;28;20208;-52
2021/09/02 12:29:05;;;;;;;3.45;3.15;;;23.40;40.70;;;;;;4989208;28;20214;-53
2021/09/02 12:31:32;;;;;;;5.40;3.45;;;23.40;40.50;;;;;;4991363;28;20226;-51
2021/09/02 12:33:58;;;;;;;3.97;3.58;;;23.30;40.30;;;;;;4990927;28;20207;-51
2021/09/02 12:36:24;;;;;;;3.70;3.40;;;23.30;40.20;;;;;;4991310;28;20268;-49
2021/09/02 12:38:51;;;;;;;3.65;3.05;;;23.30;39.90;;;;;;4991129;28;20202;-50
2021/09/02 12:41:17;;;;;;;5.03;3.13;;;23.30;39.60;;;;;;5029139;22;20669;-45